createdAt,value
2023-05-12T00:00:25.530Z,1002.4
2023-05-12T00:01:42.556Z,1002.4
2023-05-12T00:02:59.685Z,1002.4
2023-05-12T00:04:17.197Z,1002.4
2023-05-12T00:05:33.535Z,1002.4
2023-05-12T00:06:50.524Z,1002.4
2023-05-12T00:08:07.534Z,1002.5
2023-05-12T00:09:24.571Z,1002.5
2023-05-12T00:10:41.569Z,1002.4
2023-05-12T00:11:58.543Z,1002.4
2023-05-12T00:13:15.573Z,1002.4
2023-05-12T00:14:32.585Z,1002.4
2023-05-12T00:15:49.547Z,1002.4
2023-05-12T00:17:06.629Z,1002.4
2023-05-12T00:18:23.604Z,1002.4
2023-05-12T00:19:40.561Z,1002.3
2023-05-12T00:20:57.605Z,1002.4
2023-05-12T00:22:14.661Z,1002.4
2023-05-12T00:23:31.627Z,1002.4
2023-05-12T00:24:48.574Z,1002.3
2023-05-12T00:26:05.571Z,1002.4
2023-05-12T00:27:22.629Z,1002.3
2023-05-12T00:28:39.569Z,1002.3
2023-05-12T00:29:56.576Z,1002.3
2023-05-12T00:31:13.630Z,1002.3
2023-05-12T00:32:30.727Z,1002.3
2023-05-12T00:33:47.584Z,1002.3
2023-05-12T00:35:05.184Z,1002.3
2023-05-12T00:36:22.596Z,1002.3
2023-05-12T00:37:39.639Z,1002.3
2023-05-12T00:38:56.584Z,1002.3
2023-05-12T00:40:13.597Z,1002.3
2023-05-12T00:41:30.608Z,1002.3
2023-05-12T00:42:47.674Z,1002.4
2023-05-12T00:44:04.595Z,1002.4
2023-05-12T00:45:21.631Z,1002.4
2023-05-12T00:46:38.613Z,1002.4
2023-05-12T00:47:55.729Z,1002.3
2023-05-12T00:49:12.634Z,1002.4
2023-05-12T00:50:29.608Z,1002.4
2023-05-12T00:51:46.654Z,1002.4
2023-05-12T00:53:03.615Z,1002.4
2023-05-12T00:54:20.707Z,1002.4
2023-05-12T00:55:37.687Z,1002.4
2023-05-12T00:56:54.654Z,1002.4
2023-05-12T00:58:11.656Z,1002.4
2023-05-12T00:59:28.631Z,1002.4
2023-05-12T01:00:45.660Z,1002.4
2023-05-12T01:02:02.751Z,1002.4
2023-05-12T01:03:19.752Z,1002.5
2023-05-12T01:04:36.634Z,1002.4
2023-05-12T01:05:53.699Z,1002.5
2023-05-12T01:07:10.628Z,1002.5
2023-05-12T01:08:27.731Z,1002.5
2023-05-12T01:09:44.639Z,1002.5
2023-05-12T01:11:01.706Z,1002.5
2023-05-12T01:12:18.967Z,1002.5
2023-05-12T01:13:35.653Z,1002.5
2023-05-12T01:14:52.643Z,1002.5
2023-05-12T01:16:09.669Z,1002.6
2023-05-12T01:17:27.109Z,1002.6
2023-05-12T01:18:44.719Z,1002.6
2023-05-12T01:20:01.692Z,1002.6
2023-05-12T01:21:18.664Z,1002.6
2023-05-12T01:22:36.459Z,1002.6
2023-05-12T01:23:53.850Z,1002.6
2023-05-12T01:25:10.673Z,1002.6
2023-05-12T01:26:27.658Z,1002.6
2023-05-12T01:27:44.725Z,1002.6
2023-05-12T01:29:01.703Z,1002.6
2023-05-12T01:30:18.821Z,1002.6
2023-05-12T01:31:35.743Z,1002.6
2023-05-12T01:32:52.705Z,1002.6
2023-05-12T01:34:09.700Z,1002.6
2023-05-12T01:35:26.701Z,1002.6
2023-05-12T01:36:43.679Z,1002.6
2023-05-12T01:38:00.715Z,1002.6
2023-05-12T01:39:17.696Z,1002.6
2023-05-12T01:40:34.724Z,1002.6
2023-05-12T01:41:51.685Z,1002.6
2023-05-12T01:43:08.717Z,1002.6
2023-05-12T01:44:25.681Z,1002.6
2023-05-12T01:45:42.753Z,1002.6
2023-05-12T01:46:59.687Z,1002.6
2023-05-12T01:48:16.693Z,1002.6
2023-05-12T01:49:33.723Z,1002.6
2023-05-12T01:50:50.718Z,1002.6
2023-05-12T01:52:07.725Z,1002.6
2023-05-12T01:53:24.732Z,1002.6
2023-05-12T01:54:41.729Z,1002.6
2023-05-12T01:55:58.712Z,1002.6
2023-05-12T01:57:15.736Z,1002.6
2023-05-12T01:58:32.714Z,1002.6
2023-05-12T01:59:49.751Z,1002.6
2023-05-12T02:01:06.699Z,1002.7
2023-05-12T02:02:23.755Z,1002.7
2023-05-12T02:03:40.749Z,1002.6
2023-05-12T02:04:57.830Z,1002.6
2023-05-12T02:06:14.813Z,1002.6
2023-05-12T02:07:31.742Z,1002.6
2023-05-12T02:08:48.772Z,1002.6
2023-05-12T02:10:05.760Z,1002.6
2023-05-12T02:11:22.760Z,1002.6
2023-05-12T02:12:39.759Z,1002.6
2023-05-12T02:13:56.735Z,1002.6
2023-05-12T02:15:13.812Z,1002.6
2023-05-12T02:16:30.769Z,1002.6
2023-05-12T02:17:47.815Z,1002.5
2023-05-12T02:19:04.808Z,1002.5
2023-05-12T02:20:21.975Z,1002.6
2023-05-12T02:21:38.778Z,1002.6
2023-05-12T02:22:55.779Z,1002.6
2023-05-12T02:24:14.770Z,1002.7
2023-05-12T02:25:29.817Z,1002.6
2023-05-12T02:26:46.802Z,1002.6
2023-05-12T02:28:03.771Z,1002.6
2023-05-12T02:29:20.808Z,1002.6
2023-05-12T02:30:37.812Z,1002.6
2023-05-12T02:31:54.767Z,1002.6
2023-05-12T02:33:11.756Z,1002.6
2023-05-12T02:34:28.836Z,1002.6
2023-05-12T02:35:45.910Z,1002.6
2023-05-12T02:37:02.770Z,1002.7
2023-05-12T02:38:19.845Z,1002.7
2023-05-12T02:39:36.798Z,1002.7
2023-05-12T02:40:53.795Z,1002.7
2023-05-12T02:42:10.781Z,1002.7
2023-05-12T02:43:27.774Z,1002.7
2023-05-12T02:44:44.901Z,1002.7
2023-05-12T02:46:01.926Z,1002.7
2023-05-12T02:47:18.799Z,1002.7
2023-05-12T02:48:35.785Z,1002.7
2023-05-12T02:49:52.811Z,1002.7
2023-05-12T02:51:10.344Z,1002.8
2023-05-12T02:52:27.873Z,1002.8
2023-05-12T02:53:44.808Z,1002.8
2023-05-12T02:55:01.830Z,1002.8
2023-05-12T02:56:18.795Z,1002.8
2023-05-12T02:57:35.842Z,1002.8
2023-05-12T02:58:52.808Z,1002.8
2023-05-12T03:00:09.817Z,1002.8
2023-05-12T03:01:26.839Z,1002.8
2023-05-12T03:02:43.903Z,1002.8
2023-05-12T03:04:00.855Z,1002.8
2023-05-12T03:05:17.886Z,1002.8
2023-05-12T03:06:34.887Z,1002.8
2023-05-12T03:07:51.828Z,1002.8
2023-05-12T03:09:08.806Z,1002.8
2023-05-12T03:10:25.849Z,1002.8
2023-05-12T03:11:43.454Z,1002.8
2023-05-12T03:12:59.825Z,1002.8
2023-05-12T03:14:16.826Z,1002.8
2023-05-12T03:15:33.850Z,1002.8
2023-05-12T03:16:50.894Z,1002.8
2023-05-12T03:18:07.906Z,1002.8
2023-05-12T03:19:24.817Z,1002.9
2023-05-12T03:20:41.837Z,1002.9
2023-05-12T03:21:58.906Z,1002.8
2023-05-12T03:23:15.836Z,1002.8
2023-05-12T03:24:32.843Z,1002.7
2023-05-12T03:25:49.840Z,1002.8
2023-05-12T03:27:06.864Z,1002.8
2023-05-12T03:28:23.852Z,1002.8
2023-05-12T03:29:40.846Z,1002.8
2023-05-12T03:30:57.885Z,1002.8
2023-05-12T03:32:14.892Z,1002.8
2023-05-12T03:33:31.885Z,1002.9
2023-05-12T03:34:48.851Z,1002.9
2023-05-12T03:36:05.857Z,1002.9
2023-05-12T03:37:22.890Z,1002.9
2023-05-12T03:38:39.895Z,1002.9
2023-05-12T03:39:56.851Z,1002.9
2023-05-12T03:41:13.861Z,1002.9
2023-05-12T03:42:30.860Z,1002.9
2023-05-12T03:43:47.925Z,1002.9
2023-05-12T03:45:04.878Z,1002.9
2023-05-12T03:46:21.952Z,1002.9
2023-05-12T03:47:38.942Z,1002.9
2023-05-12T03:48:55.893Z,1002.9
2023-05-12T03:50:12.952Z,1002.9
2023-05-12T03:51:29.870Z,1002.9
2023-05-12T03:52:46.910Z,1002.9
2023-05-12T03:54:03.902Z,1002.9
2023-05-12T03:55:20.884Z,1002.9
2023-05-12T03:56:37.888Z,1003
2023-05-12T03:57:54.919Z,1003
2023-05-12T03:59:11.941Z,1003
2023-05-12T04:00:28.892Z,1003
2023-05-12T04:01:45.938Z,1002.9
2023-05-12T04:03:03.003Z,1002.9
2023-05-12T04:04:19.936Z,1002.9
2023-05-12T04:05:36.900Z,1003
2023-05-12T04:06:53.900Z,1003
2023-05-12T04:08:10.921Z,1003
2023-05-12T04:09:27.947Z,1003
2023-05-12T04:10:44.899Z,1003
2023-05-12T04:12:01.915Z,1003
2023-05-12T04:13:18.956Z,1003
2023-05-12T04:14:42.659Z,1003
2023-05-12T04:15:53.292Z,1003
2023-05-12T04:17:09.914Z,1003
2023-05-12T04:18:27.016Z,1003
2023-05-12T04:19:43.967Z,1003
2023-05-12T04:21:01.049Z,1003.1
2023-05-12T04:22:18.528Z,1003.1
2023-05-12T04:23:35.952Z,1003.1
2023-05-12T04:24:53.517Z,1003.1
2023-05-12T04:26:10.951Z,1003.1
2023-05-12T04:27:27.968Z,1003.1
2023-05-12T04:28:44.949Z,1003.1
2023-05-12T04:30:01.970Z,1003.1
2023-05-12T04:31:19.030Z,1003.1
2023-05-12T04:32:35.991Z,1003.1
2023-05-12T04:33:52.958Z,1003.2
2023-05-12T04:35:11.065Z,1003.2
2023-05-12T04:36:28.554Z,1003.1
2023-05-12T04:37:46.015Z,1003.1
2023-05-12T04:39:03.109Z,1003.1
2023-05-12T04:40:20.127Z,1003.1
2023-05-12T04:41:37.122Z,1003.2
2023-05-12T04:42:53.996Z,1003.2
2023-05-12T04:44:10.978Z,1003.2
2023-05-12T04:45:27.955Z,1003.2
2023-05-12T04:46:44.968Z,1003.2
2023-05-12T04:48:02.049Z,1003.2
2023-05-12T04:49:18.969Z,1003.2
2023-05-12T04:50:36.005Z,1003.2
2023-05-12T04:51:53.028Z,1003.2
2023-05-12T04:53:11.371Z,1003.2
2023-05-12T04:54:26.982Z,1003.2
2023-05-12T04:55:43.999Z,1003.2
2023-05-12T04:57:01.000Z,1003.2
2023-05-12T04:58:17.981Z,1003.2
2023-05-12T04:59:34.979Z,1003.2
2023-05-12T05:00:51.987Z,1003.2
2023-05-12T05:02:09.085Z,1003.2
2023-05-12T05:03:26.084Z,1003.2
2023-05-12T05:04:42.991Z,1003.2
2023-05-12T05:05:59.990Z,1003.3
2023-05-12T05:07:16.997Z,1003.3
2023-05-12T05:08:34.009Z,1003.3
2023-05-12T05:09:51.619Z,1003.3
2023-05-12T05:11:07.997Z,1003.3
2023-05-12T05:12:25.051Z,1003.3
2023-05-12T05:13:42.003Z,1003.3
2023-05-12T05:14:59.071Z,1003.3
2023-05-12T05:16:16.032Z,1003.3
2023-05-12T05:17:33.031Z,1003.3
2023-05-12T05:18:50.032Z,1003.4
2023-05-12T05:20:11.571Z,1003.4
2023-05-12T05:21:24.046Z,1003.4
2023-05-12T05:22:41.029Z,1003.4
2023-05-12T05:23:58.043Z,1003.4
2023-05-12T05:25:15.100Z,1003.4
2023-05-12T05:26:32.232Z,1003.4
2023-05-12T05:27:49.106Z,1003.4
2023-05-12T05:29:06.078Z,1003.4
2023-05-12T05:30:23.023Z,1003.4
2023-05-12T05:31:40.042Z,1003.4
2023-05-12T05:32:57.059Z,1003.4
2023-05-12T05:34:14.072Z,1003.4
2023-05-12T05:35:31.022Z,1003.4
2023-05-12T05:36:48.040Z,1003.4
2023-05-12T05:38:05.050Z,1003.4
2023-05-12T05:39:22.150Z,1003.4
2023-05-12T05:40:49.194Z,1003.4
2023-05-12T05:41:56.075Z,1003.5
2023-05-12T05:43:13.096Z,1003.4
2023-05-12T05:44:30.076Z,1003.4
2023-05-12T05:45:47.046Z,1003.4
2023-05-12T05:47:04.088Z,1003.4
2023-05-12T05:48:21.101Z,1003.4
2023-05-12T05:49:38.154Z,1003.4
2023-05-12T05:50:55.088Z,1003.5
2023-05-12T05:52:12.074Z,1003.4
2023-05-12T05:53:29.135Z,1003.4
2023-05-12T05:54:46.077Z,1003.4
2023-05-12T05:56:03.072Z,1003.5
2023-05-12T05:57:20.092Z,1003.5
2023-05-12T05:58:37.100Z,1003.5
2023-05-12T05:59:54.055Z,1003.5
2023-05-12T06:01:11.064Z,1003.5
2023-05-12T06:02:28.189Z,1003.5
2023-05-12T06:03:45.216Z,1003.5
2023-05-12T06:05:02.094Z,1003.6
2023-05-12T06:06:19.096Z,1003.6
2023-05-12T06:07:36.093Z,1003.6
2023-05-12T06:08:53.138Z,1003.6
2023-05-12T06:10:10.087Z,1003.6
2023-05-12T06:11:27.189Z,1003.6
2023-05-12T06:12:44.124Z,1003.6
2023-05-12T06:14:01.162Z,1003.6
2023-05-12T06:15:18.271Z,1003.6
2023-05-12T06:16:35.160Z,1003.6
2023-05-12T06:17:52.132Z,1003.6
2023-05-12T06:19:09.237Z,1003.6
2023-05-12T06:20:26.161Z,1003.6
2023-05-12T06:21:43.092Z,1003.6
2023-05-12T06:23:00.124Z,1003.6
2023-05-12T06:24:17.153Z,1003.6
2023-05-12T06:25:34.147Z,1003.5
2023-05-12T06:26:51.139Z,1003.4
2023-05-12T06:28:08.132Z,1003.3
2023-05-12T06:29:25.147Z,1003.2
2023-05-12T06:30:42.166Z,1003.1
2023-05-12T06:31:59.159Z,1003
2023-05-12T06:33:16.170Z,1002.9
2023-05-12T06:34:33.115Z,1002.9
2023-05-12T06:35:50.160Z,1002.8
2023-05-12T06:37:07.200Z,1002.8
2023-05-12T06:38:24.128Z,1002.8
2023-05-12T06:39:41.146Z,1002.8
2023-05-12T06:40:58.159Z,1002.9
2023-05-12T06:42:16.573Z,1002.8
2023-05-12T06:43:33.150Z,1002.9
2023-05-12T06:44:50.138Z,1002.8
2023-05-12T06:46:07.173Z,1002.9
2023-05-12T06:47:24.181Z,1002.9
2023-05-12T06:48:41.186Z,1002.9
2023-05-12T06:49:58.170Z,1002.9
2023-05-12T06:51:15.183Z,1002.9
2023-05-12T06:52:32.140Z,1002.9
2023-05-12T06:53:49.179Z,1002.9
2023-05-12T06:55:06.180Z,1002.9
2023-05-12T06:56:23.208Z,1002.9
2023-05-12T06:57:40.227Z,1003
2023-05-12T06:58:57.181Z,1002.9
2023-05-12T07:00:14.189Z,1002.9
2023-05-12T07:01:31.215Z,1003
2023-05-12T07:02:48.221Z,1003
2023-05-12T07:04:05.249Z,1003
2023-05-12T07:05:22.608Z,1003
2023-05-12T07:06:39.173Z,1003
2023-05-12T07:07:56.267Z,1002.9
2023-05-12T07:09:13.198Z,1002.9
2023-05-12T07:10:30.286Z,1002.9
2023-05-12T07:11:47.175Z,1002.9
2023-05-12T07:13:04.296Z,1002.9
2023-05-12T07:14:21.192Z,1002.8
2023-05-12T07:15:38.277Z,1002.8
2023-05-12T07:16:55.506Z,1002.8
2023-05-12T07:18:12.258Z,1002.9
2023-05-12T07:19:29.191Z,1002.9
2023-05-12T07:20:46.256Z,1002.9
2023-05-12T07:22:03.230Z,1002.9
2023-05-12T07:23:20.255Z,1002.8
2023-05-12T07:24:37.301Z,1002.9
2023-05-12T07:25:54.238Z,1002.9
2023-05-12T07:27:11.227Z,1002.9
2023-05-12T07:28:28.241Z,1002.9
2023-05-12T07:29:45.732Z,1002.9
2023-05-12T07:31:03.263Z,1002.9
2023-05-12T07:32:20.224Z,1002.9
2023-05-12T07:33:37.228Z,1002.9
2023-05-12T07:34:54.243Z,1002.9
2023-05-12T07:36:11.237Z,1003
2023-05-12T07:37:28.218Z,1002.9
2023-05-12T07:38:45.228Z,1002.9
2023-05-12T07:40:02.288Z,1003
2023-05-12T07:41:19.226Z,1003
2023-05-12T07:42:36.280Z,1003
2023-05-12T07:43:53.303Z,1003
2023-05-12T07:45:10.268Z,1003
2023-05-12T07:46:27.278Z,1003.1
2023-05-12T07:47:44.308Z,1003
2023-05-12T07:49:01.318Z,1003
2023-05-12T07:50:18.370Z,1003.1
2023-05-12T07:51:35.255Z,1003.1
2023-05-12T07:52:52.319Z,1003.1
2023-05-12T07:54:09.294Z,1003.1
2023-05-12T07:55:26.256Z,1003.1
2023-05-12T07:56:43.282Z,1003.1
2023-05-12T07:58:00.701Z,1003.1
2023-05-12T07:59:17.460Z,1003.1
2023-05-12T08:00:34.269Z,1003.1
2023-05-12T08:01:51.301Z,1003.1
2023-05-12T08:03:08.352Z,1003.1
2023-05-12T08:04:25.353Z,1003.2
2023-05-12T08:05:42.306Z,1003.2
2023-05-12T08:06:59.287Z,1003.2
2023-05-12T08:08:16.321Z,1003.2
2023-05-12T08:09:33.451Z,1003.2
2023-05-12T08:10:50.329Z,1003.2
2023-05-12T08:12:07.321Z,1003.2
2023-05-12T08:13:24.293Z,1003.2
2023-05-12T08:14:41.472Z,1003.2
2023-05-12T08:15:58.387Z,1003.2
2023-05-12T08:17:16.561Z,1003.2
2023-05-12T08:18:33.366Z,1003.2
2023-05-12T08:19:50.341Z,1003.2
2023-05-12T08:21:07.390Z,1003.2
2023-05-12T08:22:24.324Z,1003.2
2023-05-12T08:23:41.326Z,1003.2
2023-05-12T08:24:58.438Z,1003.2
2023-05-12T08:26:15.304Z,1003.3
2023-05-12T08:27:32.308Z,1003.2
2023-05-12T08:28:49.343Z,1003.2
2023-05-12T08:30:06.490Z,1003.2
2023-05-12T08:31:23.361Z,1003.2
2023-05-12T08:32:40.460Z,1003.2
2023-05-12T08:34:08.862Z,1003.3
2023-05-12T08:35:14.437Z,1003.3
2023-05-12T08:36:31.330Z,1003.3
2023-05-12T08:37:48.362Z,1003.3
2023-05-12T08:39:05.352Z,1003.3
2023-05-12T08:40:22.362Z,1003.3
2023-05-12T08:41:39.440Z,1003.4
2023-05-12T08:42:56.345Z,1003.4
2023-05-12T08:44:13.382Z,1003.4
2023-05-12T08:45:30.757Z,1003.4
2023-05-12T08:46:47.407Z,1003.4
2023-05-12T08:48:04.420Z,1003.4
2023-05-12T08:49:21.400Z,1003.4
2023-05-12T08:50:38.386Z,1003.4
2023-05-12T08:51:58.019Z,1003.4
2023-05-12T08:53:12.374Z,1003.4
2023-05-12T08:54:29.453Z,1003.4
2023-05-12T08:55:54.375Z,1003.4
2023-05-12T08:58:27.742Z,1003.5
2023-05-12T08:59:37.473Z,1003.5
2023-05-12T09:00:54.474Z,1003.5
2023-05-12T09:02:11.436Z,1003.5
2023-05-12T09:03:28.412Z,1003.5
2023-05-12T09:04:45.486Z,1003.5
2023-05-12T09:06:02.407Z,1003.5
2023-05-12T09:07:19.457Z,1003.5
2023-05-12T09:08:37.391Z,1003.5
2023-05-12T09:09:54.384Z,1003.5
2023-05-12T09:11:11.389Z,1003.5
2023-05-12T09:12:28.450Z,1003.5
2023-05-12T09:13:45.398Z,1003.5
2023-05-12T09:15:02.431Z,1003.5
2023-05-12T09:16:19.559Z,1003.5
2023-05-12T09:17:36.506Z,1003.5
2023-05-12T09:18:53.428Z,1003.5
2023-05-12T09:20:17.855Z,1003.4
2023-05-12T09:21:27.416Z,1003.4
2023-05-12T09:22:44.472Z,1003.4
2023-05-12T09:24:01.421Z,1003.5
2023-05-12T09:25:18.665Z,1003.5
2023-05-12T09:26:35.453Z,1003.5
2023-05-12T09:27:52.460Z,1003.4
2023-05-12T09:29:10.882Z,1003.4
2023-05-12T09:30:26.567Z,1003.4
2023-05-12T09:31:43.641Z,1003.4
2023-05-12T09:33:00.484Z,1003.4
2023-05-12T09:34:17.434Z,1003.4
2023-05-12T09:35:34.477Z,1003.4
2023-05-12T09:36:51.441Z,1003.4
2023-05-12T09:38:08.698Z,1003.4
2023-05-12T09:39:25.435Z,1003.5
2023-05-12T09:40:42.541Z,1003.5
2023-05-12T09:41:59.545Z,1003.4
2023-05-12T09:43:16.470Z,1003.5
2023-05-12T09:44:33.519Z,1003.5
2023-05-12T09:45:49.882Z,1003.5
2023-05-12T09:47:07.560Z,1003.5
2023-05-12T09:48:26.882Z,1003.5
2023-05-12T09:49:41.543Z,1003.5
2023-05-12T09:50:58.505Z,1003.4
2023-05-12T09:52:15.605Z,1003.5
2023-05-12T09:53:32.452Z,1003.5
2023-05-12T09:54:49.454Z,1003.5
2023-05-12T09:56:06.486Z,1003.5
2023-05-12T09:57:23.555Z,1003.5
2023-05-12T09:58:40.658Z,1003.6
2023-05-12T09:59:57.479Z,1003.6
2023-05-12T10:01:22.514Z,1003.6
2023-05-12T10:02:31.684Z,1003.6
2023-05-12T10:03:48.483Z,1003.5
2023-05-12T10:05:05.596Z,1003.5
2023-05-12T10:06:22.521Z,1003.5
2023-05-12T10:07:39.541Z,1003.5
2023-05-12T10:08:56.498Z,1003.5
2023-05-12T10:10:13.562Z,1003.4
2023-05-12T10:11:30.528Z,1003.5
2023-05-12T10:12:47.555Z,1003.5
2023-05-12T10:14:04.528Z,1003.5
2023-05-12T10:15:21.609Z,1003.5
2023-05-12T10:16:37.929Z,1003.5
2023-05-12T10:17:54.166Z,1003.5
2023-05-12T10:19:10.960Z,1003.4
2023-05-12T10:20:27.525Z,1003.4
2023-05-12T10:21:44.688Z,1003.4
2023-05-12T10:23:01.614Z,1003.4
2023-05-12T10:24:18.522Z,1003.5
2023-05-12T10:25:35.624Z,1003.4
2023-05-12T10:26:52.526Z,1003.5
2023-05-12T10:28:09.538Z,1003.5
2023-05-12T10:29:26.565Z,1003.5
2023-05-12T10:30:43.568Z,1003.4
2023-05-12T10:32:00.584Z,1003.4
2023-05-12T10:33:17.581Z,1003.4
2023-05-12T10:34:34.572Z,1003.4
2023-05-12T10:35:51.550Z,1003.4
2023-05-12T10:37:08.610Z,1003.4
2023-05-12T10:38:25.559Z,1003.4
2023-05-12T10:39:42.551Z,1003.4
2023-05-12T10:40:59.607Z,1003.4
2023-05-12T10:42:16.582Z,1003.4
2023-05-12T10:43:33.550Z,1003.4
2023-05-12T10:44:50.598Z,1003.4
2023-05-12T10:46:07.692Z,1003.4
2023-05-12T10:47:24.605Z,1003.4
2023-05-12T10:48:41.657Z,1003.5
2023-05-12T10:49:58.638Z,1003.5
2023-05-12T10:51:15.576Z,1003.5
2023-05-12T10:52:32.609Z,1003.5
2023-05-12T10:53:52.709Z,1003.5
2023-05-12T10:55:06.572Z,1003.5
2023-05-12T10:56:23.844Z,1003.5
2023-05-12T10:57:40.800Z,1003.5
2023-05-12T10:58:57.780Z,1003.5
2023-05-12T11:00:14.831Z,1003.5
2023-05-12T11:01:31.776Z,1003.4
2023-05-12T11:02:49.120Z,1003.4
2023-05-12T11:04:05.812Z,1003.4
2023-05-12T11:05:22.859Z,1003.4
2023-05-12T11:06:40.906Z,1003.4
2023-05-12T11:07:57.036Z,1003.3
2023-05-12T11:09:13.866Z,1003.4
2023-05-12T11:10:31.170Z,1003.4
2023-05-12T11:11:47.692Z,1003.4
2023-05-12T11:13:04.671Z,1003.4
2023-05-12T11:14:21.606Z,1003.4
2023-05-12T11:15:38.669Z,1003.4
2023-05-12T11:16:55.606Z,1003.4
2023-05-12T11:18:12.749Z,1003.4
2023-05-12T11:19:29.648Z,1003.4
2023-05-12T11:20:46.636Z,1003.3
2023-05-12T11:22:03.706Z,1003.3
2023-05-12T11:23:20.638Z,1003.4
2023-05-12T11:24:37.652Z,1003.3
2023-05-12T11:25:54.713Z,1003.4
2023-05-12T11:27:11.641Z,1003.4
2023-05-12T11:28:28.712Z,1003.4
2023-05-12T11:29:45.675Z,1003.4
2023-05-12T11:31:02.127Z,1003.4
2023-05-12T11:32:18.862Z,1003.4
2023-05-12T11:33:35.074Z,1003.4
2023-05-12T11:34:51.059Z,1003.4
2023-05-12T11:36:12.641Z,1003.4
2023-05-12T11:37:29.721Z,1003.4
2023-05-12T11:38:46.647Z,1003.4
2023-05-12T11:40:03.737Z,1003.5
2023-05-12T11:41:20.670Z,1003.5
2023-05-12T11:42:37.728Z,1003.4
2023-05-12T11:43:54.667Z,1003.4
2023-05-12T11:45:11.676Z,1003.4
2023-05-12T11:46:28.695Z,1003.4
2023-05-12T11:47:45.775Z,1003.4
2023-05-12T11:49:03.726Z,1003.4
2023-05-12T11:50:20.718Z,1003.4
2023-05-12T11:51:37.675Z,1003.5
2023-05-12T11:52:55.718Z,1003.5
2023-05-12T11:54:12.687Z,1003.5
2023-05-12T11:55:29.681Z,1003.5
2023-05-12T11:56:46.694Z,1003.5
2023-05-12T11:58:03.822Z,1003.4
2023-05-12T11:59:20.713Z,1003.4
2023-05-12T12:00:37.701Z,1003.5
2023-05-12T12:01:54.746Z,1003.5
2023-05-12T12:03:11.894Z,1003.4
2023-05-12T12:04:28.742Z,1003.5
2023-05-12T12:05:45.813Z,1003.4
2023-05-12T12:07:02.113Z,1003.4
2023-05-12T12:08:18.743Z,1003.4
2023-05-12T12:09:35.737Z,1003.4
2023-05-12T12:10:52.730Z,1003.4
2023-05-12T12:12:09.713Z,1003.4
2023-05-12T12:13:26.764Z,1003.3
2023-05-12T12:14:44.636Z,1003.3
2023-05-12T12:16:01.847Z,1003.4
2023-05-12T12:17:18.727Z,1003.4
2023-05-12T12:18:35.877Z,1003.4
2023-05-12T12:19:52.771Z,1003.5
2023-05-12T12:21:09.904Z,1003.5
2023-05-12T12:22:26.767Z,1003.5
2023-05-12T12:23:50.204Z,1003.5
2023-05-12T12:25:00.730Z,1003.5
2023-05-12T12:26:17.762Z,1003.5
2023-05-12T12:27:34.807Z,1003.5
2023-05-12T12:28:51.741Z,1003.4
2023-05-12T12:30:08.780Z,1003.4
2023-05-12T12:31:25.815Z,1003.4
2023-05-12T12:32:42.833Z,1003.3
2023-05-12T12:33:59.753Z,1003.3
2023-05-12T12:35:16.805Z,1003.2
2023-05-12T12:36:33.949Z,1003.2
2023-05-12T12:37:50.772Z,1003.3
2023-05-12T12:39:07.846Z,1003.2
2023-05-12T12:40:24.765Z,1003.2
2023-05-12T12:41:41.792Z,1003.4
2023-05-12T12:42:58.784Z,1003.4
2023-05-12T12:44:15.791Z,1003.3
2023-05-12T12:45:32.768Z,1003.3
2023-05-12T12:46:49.786Z,1003.4
2023-05-12T12:48:06.909Z,1003.4
2023-05-12T12:49:23.799Z,1003.4
2023-05-12T12:50:40.796Z,1003.4
2023-05-12T12:51:57.884Z,1003.4
2023-05-12T12:53:14.841Z,1003.4
2023-05-12T12:54:31.817Z,1003.4
2023-05-12T12:55:48.804Z,1003.4
2023-05-12T12:57:05.805Z,1003.4
2023-05-12T12:58:22.870Z,1003.4
2023-05-12T12:59:39.821Z,1003.4
2023-05-12T13:00:56.869Z,1003.4
2023-05-12T13:02:13.873Z,1003.4
2023-05-12T13:03:30.922Z,1003.4
2023-05-12T13:04:47.816Z,1003.3
2023-05-12T13:06:04.837Z,1003.4
2023-05-12T13:07:21.854Z,1003.3
2023-05-12T13:08:38.857Z,1003.3
2023-05-12T13:09:55.841Z,1003.3
2023-05-12T13:11:12.820Z,1003.3
2023-05-12T13:12:29.816Z,1003.3
2023-05-12T13:13:46.895Z,1003.3
2023-05-12T13:15:03.974Z,1003.3
2023-05-12T13:16:20.854Z,1003.3
2023-05-12T13:17:37.891Z,1003.3
2023-05-12T13:18:54.871Z,1003.3
2023-05-12T13:20:11.887Z,1003.3
2023-05-12T13:21:28.865Z,1003.3
2023-05-12T13:22:45.873Z,1003.3
2023-05-12T13:24:02.883Z,1003.4
2023-05-12T13:25:20.042Z,1003.4
2023-05-12T13:26:36.859Z,1003.3
2023-05-12T13:27:53.880Z,1003.3
2023-05-12T13:29:10.884Z,1003.4
2023-05-12T13:30:27.959Z,1003.3
2023-05-12T13:31:44.910Z,1003.4
2023-05-12T13:33:03.207Z,1003.4
2023-05-12T13:34:18.906Z,1003.4
2023-05-12T13:35:35.912Z,1003.4
2023-05-12T13:36:52.901Z,1003.3
2023-05-12T13:38:09.904Z,1003.3
2023-05-12T13:39:26.871Z,1003.3
2023-05-12T13:40:44.038Z,1003.4
2023-05-12T13:42:00.935Z,1003.4
2023-05-12T13:43:17.887Z,1003.4
2023-05-12T13:44:34.919Z,1003.4
2023-05-12T13:45:51.912Z,1003.3
2023-05-12T13:47:09.085Z,1003.3
2023-05-12T13:48:25.909Z,1003.3
2023-05-12T13:49:42.928Z,1003.3
2023-05-12T13:50:59.905Z,1003.3
2023-05-12T13:52:16.894Z,1003.3
2023-05-12T13:53:33.943Z,1003.2
2023-05-12T13:54:51.072Z,1003.3
2023-05-12T13:56:07.941Z,1003.3
2023-05-12T13:57:24.903Z,1003.3
2023-05-12T13:58:42.140Z,1003.3
2023-05-12T13:59:58.937Z,1003.3
2023-05-12T14:01:15.994Z,1003.3
2023-05-12T14:02:32.965Z,1003.2
2023-05-12T14:03:49.916Z,1003.1
2023-05-12T14:05:06.940Z,1003.1
2023-05-12T14:06:23.985Z,1003.2
2023-05-12T14:07:40.914Z,1003.2
2023-05-12T14:08:58.056Z,1003.2
2023-05-12T14:10:14.934Z,1003.2
2023-05-12T14:11:32.045Z,1003.2
2023-05-12T14:12:49.006Z,1003.1
2023-05-12T14:14:06.017Z,1003.2
2023-05-12T14:15:29.315Z,1003.2
2023-05-12T14:16:41.002Z,1003.2
2023-05-12T14:17:57.942Z,1003.2
2023-05-12T14:19:14.970Z,1003.2
2023-05-12T14:20:31.990Z,1003.2
2023-05-12T14:21:49.001Z,1003.2
2023-05-12T14:23:06.218Z,1003.2
2023-05-12T14:24:23.066Z,1003.2
2023-05-12T14:25:39.964Z,1003.3
2023-05-12T14:26:56.982Z,1003.3
2023-05-12T14:28:14.120Z,1003.4
2023-05-12T14:29:31.036Z,1003.3
2023-05-12T14:30:48.038Z,1003.3
2023-05-12T14:32:05.046Z,1003.3
2023-05-12T14:33:22.013Z,1003.3
2023-05-12T14:34:38.992Z,1003.3
2023-05-12T14:36:06.373Z,1003.3
2023-05-12T14:37:12.999Z,1003.3
2023-05-12T14:38:29.983Z,1003.2
2023-05-12T14:39:47.332Z,1003.2
2023-05-12T14:41:04.047Z,1003.1
2023-05-12T14:42:20.992Z,1003.1
2023-05-12T14:43:37.976Z,1003.1
2023-05-12T14:44:54.979Z,1003.2
2023-05-12T14:46:12.183Z,1003.2
2023-05-12T14:47:29.026Z,1003.1
2023-05-12T14:48:46.003Z,1003.2
2023-05-12T14:50:03.122Z,1003.3
2023-05-12T14:51:20.008Z,1003.4
2023-05-12T14:52:36.991Z,1003.4
2023-05-12T14:53:54.004Z,1003.4
2023-05-12T14:55:11.087Z,1003.4
2023-05-12T14:56:28.043Z,1003.4
2023-05-12T14:57:45.004Z,1003.4
2023-05-12T14:59:02.031Z,1003.4
2023-05-12T15:00:19.071Z,1003.4
2023-05-12T15:01:36.048Z,1003.4
2023-05-12T15:04:10.038Z,1003.4
2023-05-12T15:05:36.249Z,1003.4
2023-05-12T15:06:44.063Z,1003.4
2023-05-12T15:08:01.030Z,1003.5
2023-05-12T15:09:18.023Z,1003.4
2023-05-12T15:10:35.066Z,1003.4
2023-05-12T15:11:52.046Z,1003.3
2023-05-12T15:13:09.055Z,1003.4
2023-05-12T15:14:26.103Z,1003.3
2023-05-12T15:15:43.078Z,1003.3
2023-05-12T15:17:00.116Z,1003.3
2023-05-12T15:18:17.059Z,1003.4
2023-05-12T15:19:34.058Z,1003.4
2023-05-12T15:20:51.126Z,1003.4
2023-05-12T15:22:08.128Z,1003.4
2023-05-12T15:23:25.079Z,1003.4
2023-05-12T15:24:42.065Z,1003.4
2023-05-12T15:26:01.348Z,1003.4
2023-05-12T15:27:16.069Z,1003.4
2023-05-12T15:28:33.092Z,1003.4
2023-05-12T15:29:50.125Z,1003.4
2023-05-12T15:31:07.100Z,1003.4
2023-05-12T15:32:24.178Z,1003.3
2023-05-12T15:33:41.088Z,1003.4
2023-05-12T15:34:58.125Z,1003.4
2023-05-12T15:36:15.104Z,1003.4
2023-05-12T15:37:32.107Z,1003.4
2023-05-12T15:38:49.462Z,1003.4
2023-05-12T15:40:07.534Z,1003.5
2023-05-12T15:41:24.149Z,1003.4
2023-05-12T15:42:41.100Z,1003.5
2023-05-12T15:43:58.105Z,1003.5
2023-05-12T15:45:15.181Z,1003.5
2023-05-12T15:46:32.167Z,1003.5
2023-05-12T15:47:49.164Z,1003.5
2023-05-12T15:49:06.121Z,1003.5
2023-05-12T15:50:23.328Z,1003.5
2023-05-12T15:51:40.113Z,1003.5
2023-05-12T15:52:57.101Z,1003.5
2023-05-12T15:54:14.128Z,1003.4
2023-05-12T15:55:31.111Z,1003.5
2023-05-12T15:56:48.150Z,1003.5
2023-05-12T15:58:05.143Z,1003.5
2023-05-12T15:59:22.118Z,1003.5
2023-05-12T16:00:39.175Z,1003.5
2023-05-12T16:01:56.414Z,1003.5
2023-05-12T16:03:13.195Z,1003.5
2023-05-12T16:04:30.211Z,1003.5
2023-05-12T16:05:47.180Z,1003.5